sensor_id;sensor_type;location;lat;lon;timestamp;temperature;humidity
62339;DHT22;48368;53.406;6.214;2023-11-18T00:01:15;3.10;99.90
62339;DHT22;48368;53.406;6.214;2023-11-18T00:03:41;3.10;99.90
62339;DHT22;48368;53.406;6.214;2023-11-18T00:06:07;3.10;99.90
62339;DHT22;48368;53.406;6.214;2023-11-18T00:08:34;3.10;99.90
62339;DHT22;48368;53.406;6.214;2023-11-18T00:11:00;3.10;99.90
62339;DHT22;48368;53.406;6.214;2023-11-18T00:13:25;3.10;99.90
62339;DHT22;48368;53.406;6.214;2023-11-18T00:15:56;3.10;99.90
62339;DHT22;48368;53.406;6.214;2023-11-18T00:18:23;3.10;99.90
62339;DHT22;48368;53.406;6.214;2023-11-18T00:20:49;3.10;99.90
62339;DHT22;48368;53.406;6.214;2023-11-18T00:23:16;3.10;99.90
62339;DHT22;48368;53.406;6.214;2023-11-18T00:25:43;3.10;99.90
62339;DHT22;48368;53.406;6.214;2023-11-18T00:28:10;3.10;99.90
62339;DHT22;48368;53.406;6.214;2023-11-18T00:30:36;3.00;99.90
62339;DHT22;48368;53.406;6.214;2023-11-18T00:33:01;3.00;99.90
62339;DHT22;48368;53.406;6.214;2023-11-18T00:35:27;3.00;99.90
62339;DHT22;48368;53.406;6.214;2023-11-18T00:37:55;3.00;99.90
62339;DHT22;48368;53.406;6.214;2023-11-18T00:40:21;3.00;99.90
62339;DHT22;48368;53.406;6.214;2023-11-18T00:42:46;3.00;99.90
62339;DHT22;48368;53.406;6.214;2023-11-18T00:45:12;3.00;99.90
62339;DHT22;48368;53.406;6.214;2023-11-18T00:47:38;3.10;99.90
62339;DHT22;48368;53.406;6.214;2023-11-18T00:50:07;3.00;99.90
62339;DHT22;48368;53.406;6.214;2023-11-18T00:52:34;3.00;99.90
62339;DHT22;48368;53.406;6.214;2023-11-18T00:54:59;3.00;99.90
62339;DHT22;48368;53.406;6.214;2023-11-18T00:57:26;3.00;99.90
62339;DHT22;48368;53.406;6.214;2023-11-18T00:59:52;3.00;99.90
62339;DHT22;48368;53.406;6.214;2023-11-18T01:02:17;3.00;99.90
62339;DHT22;48368;53.406;6.214;2023-11-18T01:04:46;3.00;99.90
62339;DHT22;48368;53.406;6.214;2023-11-18T01:07:12;3.00;99.90
62339;DHT22;48368;53.406;6.214;2023-11-18T01:09:38;3.00;99.90
62339;DHT22;48368;53.406;6.214;2023-11-18T01:12:05;3.00;99.90
62339;DHT22;48368;53.406;6.214;2023-11-18T01:14:31;3.00;99.90
62339;DHT22;48368;53.406;6.214;2023-11-18T01:16:57;3.00;99.90
62339;DHT22;48368;53.406;6.214;2023-11-18T01:19:22;3.00;99.90
62339;DHT22;48368;53.406;6.214;2023-11-18T01:21:49;3.00;99.90
62339;DHT22;48368;53.406;6.214;2023-11-18T01:24:14;3.00;99.90
62339;DHT22;48368;53.406;6.214;2023-11-18T01:26:41;3.00;99.90
62339;DHT22;48368;53.406;6.214;2023-11-18T01:29:07;3.00;99.90
62339;DHT22;48368;53.406;6.214;2023-11-18T01:31:33;3.00;99.90
62339;DHT22;48368;53.406;6.214;2023-11-18T01:33:58;3.00;99.90
62339;DHT22;48368;53.406;6.214;2023-11-18T01:36:25;3.00;99.90
62339;DHT22;48368;53.406;6.214;2023-11-18T01:38:50;3.00;99.90
62339;DHT22;48368;53.406;6.214;2023-11-18T01:41:16;3.00;99.90
62339;DHT22;48368;53.406;6.214;2023-11-18T01:43:46;3.00;99.90
62339;DHT22;48368;53.406;6.214;2023-11-18T01:46:12;3.00;99.90
62339;DHT22;48368;53.406;6.214;2023-11-18T01:48:39;3.00;99.90
62339;DHT22;48368;53.406;6.214;2023-11-18T01:51:06;3.00;99.90
62339;DHT22;48368;53.406;6.214;2023-11-18T01:53:37;3.00;99.90
62339;DHT22;48368;53.406;6.214;2023-11-18T01:56:05;3.00;99.90
62339;DHT22;48368;53.406;6.214;2023-11-18T01:58:33;3.00;99.90
62339;DHT22;48368;53.406;6.214;2023-11-18T02:01:02;3.00;99.90
62339;DHT22;48368;53.406;6.214;2023-11-18T02:03:27;3.00;99.90
62339;DHT22;48368;53.406;6.214;2023-11-18T02:05:53;3.00;99.90
62339;DHT22;48368;53.406;6.214;2023-11-18T02:08:19;3.00;99.90
62339;DHT22;48368;53.406;6.214;2023-11-18T02:11:00;3.00;99.90
62339;DHT22;48368;53.406;6.214;2023-11-18T02:13:33;3.10;99.90
62339;DHT22;48368;53.406;6.214;2023-11-18T02:16:02;3.00;99.90
62339;DHT22;48368;53.406;6.214;2023-11-18T02:18:29;3.10;99.90
62339;DHT22;48368;53.406;6.214;2023-11-18T02:20:56;3.00;99.90
62339;DHT22;48368;53.406;6.214;2023-11-18T02:23:28;3.00;99.90
62339;DHT22;48368;53.406;6.214;2023-11-18T02:25:53;3.00;99.90
62339;DHT22;48368;53.406;6.214;2023-11-18T02:28:21;3.00;99.90
62339;DHT22;48368;53.406;6.214;2023-11-18T02:30:47;3.10;99.90
62339;DHT22;48368;53.406;6.214;2023-11-18T02:36:10;3.10;99.90
62339;DHT22;48368;53.406;6.214;2023-11-18T02:38:46;3.10;99.90
62339;DHT22;48368;53.406;6.214;2023-11-18T02:41:13;3.10;99.90
62339;DHT22;48368;53.406;6.214;2023-11-18T02:43:40;3.10;99.90
62339;DHT22;48368;53.406;6.214;2023-11-18T02:46:07;3.10;99.90
62339;DHT22;48368;53.406;6.214;2023-11-18T02:48:33;3.10;99.90
62339;DHT22;48368;53.406;6.214;2023-11-18T02:50:59;3.00;99.90
62339;DHT22;48368;53.406;6.214;2023-11-18T02:53:25;3.00;99.90
62339;DHT22;48368;53.406;6.214;2023-11-18T02:55:51;3.00;99.90
62339;DHT22;48368;53.406;6.214;2023-11-18T02:58:20;3.00;99.90
62339;DHT22;48368;53.406;6.214;2023-11-18T03:00:46;3.00;99.90
62339;DHT22;48368;53.406;6.214;2023-11-18T03:03:12;3.00;99.90
62339;DHT22;48368;53.406;6.214;2023-11-18T03:05:38;3.00;99.90
62339;DHT22;48368;53.406;6.214;2023-11-18T03:08:04;3.00;99.90
62339;DHT22;48368;53.406;6.214;2023-11-18T03:10:34;2.90;99.90
62339;DHT22;48368;53.406;6.214;2023-11-18T03:13:00;3.00;99.90
62339;DHT22;48368;53.406;6.214;2023-11-18T03:15:27;3.00;99.90
62339;DHT22;48368;53.406;6.214;2023-11-18T03:17:52;3.00;99.90
62339;DHT22;48368;53.406;6.214;2023-11-18T03:20:20;3.00;99.90
62339;DHT22;48368;53.406;6.214;2023-11-18T03:22:48;3.00;99.90
62339;DHT22;48368;53.406;6.214;2023-11-18T03:25:15;3.00;99.90
62339;DHT22;48368;53.406;6.214;2023-11-18T03:27:42;3.10;99.90
62339;DHT22;48368;53.406;6.214;2023-11-18T03:30:08;3.10;99.90
62339;DHT22;48368;53.406;6.214;2023-11-18T03:32:35;3.10;99.90
62339;DHT22;48368;53.406;6.214;2023-11-18T03:35:05;3.10;99.90
62339;DHT22;48368;53.406;6.214;2023-11-18T03:37:41;3.10;99.90
62339;DHT22;48368;53.406;6.214;2023-11-18T03:40:11;3.00;99.90
62339;DHT22;48368;53.406;6.214;2023-11-18T03:42:37;3.10;99.90
62339;DHT22;48368;53.406;6.214;2023-11-18T03:45:04;3.10;99.90
62339;DHT22;48368;53.406;6.214;2023-11-18T03:47:30;3.10;99.90
62339;DHT22;48368;53.406;6.214;2023-11-18T03:49:56;3.10;99.90
62339;DHT22;48368;53.406;6.214;2023-11-18T03:52:22;3.10;99.90
62339;DHT22;48368;53.406;6.214;2023-11-18T03:54:48;3.10;99.90
62339;DHT22;48368;53.406;6.214;2023-11-18T03:57:14;3.10;99.90
62339;DHT22;48368;53.406;6.214;2023-11-18T03:59:40;3.00;99.90
62339;DHT22;48368;53.406;6.214;2023-11-18T04:02:07;3.00;99.90
62339;DHT22;48368;53.406;6.214;2023-11-18T04:04:34;3.10;99.90
62339;DHT22;48368;53.406;6.214;2023-11-18T04:06:59;3.00;99.90
62339;DHT22;48368;53.406;6.214;2023-11-18T04:09:27;3.00;99.90
62339;DHT22;48368;53.406;6.214;2023-11-18T04:11:52;3.00;99.90
62339;DHT22;48368;53.406;6.214;2023-11-18T04:14:18;3.00;99.90
62339;DHT22;48368;53.406;6.214;2023-11-18T04:16:48;3.00;99.90
62339;DHT22;48368;53.406;6.214;2023-11-18T04:19:15;2.90;99.90
62339;DHT22;48368;53.406;6.214;2023-11-18T04:21:41;3.00;99.90
62339;DHT22;48368;53.406;6.214;2023-11-18T04:24:06;3.00;99.90
62339;DHT22;48368;53.406;6.214;2023-11-18T04:26:32;3.00;99.90
62339;DHT22;48368;53.406;6.214;2023-11-18T04:28:58;3.10;99.90
62339;DHT22;48368;53.406;6.214;2023-11-18T04:31:24;3.00;99.90
62339;DHT22;48368;53.406;6.214;2023-11-18T04:33:50;3.00;99.90
62339;DHT22;48368;53.406;6.214;2023-11-18T04:36:16;3.10;99.90
62339;DHT22;48368;53.406;6.214;2023-11-18T04:38:42;3.10;99.90
62339;DHT22;48368;53.406;6.214;2023-11-18T04:41:09;3.10;99.90
62339;DHT22;48368;53.406;6.214;2023-11-18T04:43:35;3.20;99.90
62339;DHT22;48368;53.406;6.214;2023-11-18T04:46:00;3.10;99.90
62339;DHT22;48368;53.406;6.214;2023-11-18T04:48:26;3.10;99.90
62339;DHT22;48368;53.406;6.214;2023-11-18T04:50:52;3.10;99.90
62339;DHT22;48368;53.406;6.214;2023-11-18T04:53:17;3.20;99.90
62339;DHT22;48368;53.406;6.214;2023-11-18T04:55:43;3.10;99.90
62339;DHT22;48368;53.406;6.214;2023-11-18T04:58:09;3.20;99.90
62339;DHT22;48368;53.406;6.214;2023-11-18T05:00:36;3.20;99.90
62339;DHT22;48368;53.406;6.214;2023-11-18T05:03:03;3.20;99.90
62339;DHT22;48368;53.406;6.214;2023-11-18T05:05:30;3.20;99.90
62339;DHT22;48368;53.406;6.214;2023-11-18T05:07:55;3.30;99.90
62339;DHT22;48368;53.406;6.214;2023-11-18T05:10:22;3.20;99.90
62339;DHT22;48368;53.406;6.214;2023-11-18T05:12:48;3.30;99.90
62339;DHT22;48368;53.406;6.214;2023-11-18T05:15:21;3.30;99.90
62339;DHT22;48368;53.406;6.214;2023-11-18T05:17:53;3.30;99.90
62339;DHT22;48368;53.406;6.214;2023-11-18T05:20:20;3.40;99.90
62339;DHT22;48368;53.406;6.214;2023-11-18T05:22:46;3.40;99.90
62339;DHT22;48368;53.406;6.214;2023-11-18T05:25:12;3.40;99.90
62339;DHT22;48368;53.406;6.214;2023-11-18T05:27:37;3.40;99.90
62339;DHT22;48368;53.406;6.214;2023-11-18T05:30:06;3.40;99.90
62339;DHT22;48368;53.406;6.214;2023-11-18T05:32:36;3.50;99.90
62339;DHT22;48368;53.406;6.214;2023-11-18T05:35:03;3.50;99.90
62339;DHT22;48368;53.406;6.214;2023-11-18T05:37:30;3.50;99.90
62339;DHT22;48368;53.406;6.214;2023-11-18T05:40:04;3.40;99.90
62339;DHT22;48368;53.406;6.214;2023-11-18T05:42:33;3.50;99.90
62339;DHT22;48368;53.406;6.214;2023-11-18T05:45:02;3.60;99.90
62339;DHT22;48368;53.406;6.214;2023-11-18T05:47:28;3.60;99.90
62339;DHT22;48368;53.406;6.214;2023-11-18T05:49:54;3.60;99.90
62339;DHT22;48368;53.406;6.214;2023-11-18T05:52:20;3.60;99.90
62339;DHT22;48368;53.406;6.214;2023-11-18T05:54:47;3.60;99.90
62339;DHT22;48368;53.406;6.214;2023-11-18T05:57:14;3.60;99.90
62339;DHT22;48368;53.406;6.214;2023-11-18T05:59:40;3.70;99.90
62339;DHT22;48368;53.406;6.214;2023-11-18T06:02:05;3.60;99.90
62339;DHT22;48368;53.406;6.214;2023-11-18T06:04:31;3.70;99.90
62339;DHT22;48368;53.406;6.214;2023-11-18T06:06:57;3.70;99.90
62339;DHT22;48368;53.406;6.214;2023-11-18T06:09:22;3.60;99.90
62339;DHT22;48368;53.406;6.214;2023-11-18T06:11:51;3.70;99.90
62339;DHT22;48368;53.406;6.214;2023-11-18T06:14:19;3.70;99.90
62339;DHT22;48368;53.406;6.214;2023-11-18T06:16:47;3.70;99.90
62339;DHT22;48368;53.406;6.214;2023-11-18T06:19:13;3.70;99.90
62339;DHT22;48368;53.406;6.214;2023-11-18T06:21:40;3.70;99.90
62339;DHT22;48368;53.406;6.214;2023-11-18T06:24:06;3.70;99.90
62339;DHT22;48368;53.406;6.214;2023-11-18T06:26:32;3.70;99.90
62339;DHT22;48368;53.406;6.214;2023-11-18T06:29:01;3.60;99.90
62339;DHT22;48368;53.406;6.214;2023-11-18T06:31:27;3.70;99.90
62339;DHT22;48368;53.406;6.214;2023-11-18T06:33:55;3.70;99.90
62339;DHT22;48368;53.406;6.214;2023-11-18T06:36:21;3.70;99.90
62339;DHT22;48368;53.406;6.214;2023-11-18T06:38:48;3.70;99.90
62339;DHT22;48368;53.406;6.214;2023-11-18T06:41:18;3.80;99.90
62339;DHT22;48368;53.406;6.214;2023-11-18T06:43:45;3.80;99.90
62339;DHT22;48368;53.406;6.214;2023-11-18T06:46:22;3.80;99.90
62339;DHT22;48368;53.406;6.214;2023-11-18T06:48:48;3.70;99.90
62339;DHT22;48368;53.406;6.214;2023-11-18T06:51:15;3.80;99.90
62339;DHT22;48368;53.406;6.214;2023-11-18T06:53:42;3.90;99.90
62339;DHT22;48368;53.406;6.214;2023-11-18T06:56:09;3.80;99.90
62339;DHT22;48368;53.406;6.214;2023-11-18T06:58:38;3.90;99.90
62339;DHT22;48368;53.406;6.214;2023-11-18T07:01:04;3.90;99.90
62339;DHT22;48368;53.406;6.214;2023-11-18T07:03:31;3.90;99.90
62339;DHT22;48368;53.406;6.214;2023-11-18T07:05:57;3.90;99.90
62339;DHT22;48368;53.406;6.214;2023-11-18T07:08:23;4.00;99.90
62339;DHT22;48368;53.406;6.214;2023-11-18T07:10:49;4.00;99.90
62339;DHT22;48368;53.406;6.214;2023-11-18T07:13:15;4.00;99.90
62339;DHT22;48368;53.406;6.214;2023-11-18T07:15:42;4.00;99.90
62339;DHT22;48368;53.406;6.214;2023-11-18T07:18:08;4.10;99.90
62339;DHT22;48368;53.406;6.214;2023-11-18T07:20:34;4.00;99.90
62339;DHT22;48368;53.406;6.214;2023-11-18T07:23:00;4.10;99.90
62339;DHT22;48368;53.406;6.214;2023-11-18T07:25:26;4.10;99.90
62339;DHT22;48368;53.406;6.214;2023-11-18T07:27:51;4.10;99.90
62339;DHT22;48368;53.406;6.214;2023-11-18T07:30:17;4.10;99.90
62339;DHT22;48368;53.406;6.214;2023-11-18T07:32:44;4.20;99.90
62339;DHT22;48368;53.406;6.214;2023-11-18T07:35:09;4.10;99.90
62339;DHT22;48368;53.406;6.214;2023-11-18T07:37:36;4.20;99.90
62339;DHT22;48368;53.406;6.214;2023-11-18T07:40:03;4.20;99.90
62339;DHT22;48368;53.406;6.214;2023-11-18T07:42:31;4.20;99.90
62339;DHT22;48368;53.406;6.214;2023-11-18T07:45:00;4.30;99.90
62339;DHT22;48368;53.406;6.214;2023-11-18T07:47:29;4.30;99.90
62339;DHT22;48368;53.406;6.214;2023-11-18T07:49:58;4.30;99.90
62339;DHT22;48368;53.406;6.214;2023-11-18T07:52:27;4.30;99.90
62339;DHT22;48368;53.406;6.214;2023-11-18T07:54:53;4.30;99.90
62339;DHT22;48368;53.406;6.214;2023-11-18T07:57:19;4.40;99.90
62339;DHT22;48368;53.406;6.214;2023-11-18T07:59:45;4.40;99.90
62339;DHT22;48368;53.406;6.214;2023-11-18T08:02:10;4.40;99.90
62339;DHT22;48368;53.406;6.214;2023-11-18T08:04:36;4.40;99.90
62339;DHT22;48368;53.406;6.214;2023-11-18T08:07:02;4.40;99.90
62339;DHT22;48368;53.406;6.214;2023-11-18T08:09:30;4.40;99.90
62339;DHT22;48368;53.406;6.214;2023-11-18T08:11:57;4.40;99.90
62339;DHT22;48368;53.406;6.214;2023-11-18T08:14:24;4.50;99.90
62339;DHT22;48368;53.406;6.214;2023-11-18T08:16:49;4.60;99.90
62339;DHT22;48368;53.406;6.214;2023-11-18T08:19:16;4.50;99.90
62339;DHT22;48368;53.406;6.214;2023-11-18T08:21:44;4.50;99.90
62339;DHT22;48368;53.406;6.214;2023-11-18T08:24:10;4.60;99.90
62339;DHT22;48368;53.406;6.214;2023-11-18T08:26:38;4.60;99.90
62339;DHT22;48368;53.406;6.214;2023-11-18T08:29:03;4.60;99.90
62339;DHT22;48368;53.406;6.214;2023-11-18T08:31:29;4.70;99.90
62339;DHT22;48368;53.406;6.214;2023-11-18T08:33:54;4.60;99.90
62339;DHT22;48368;53.406;6.214;2023-11-18T08:36:21;4.70;99.90
62339;DHT22;48368;53.406;6.214;2023-11-18T08:38:51;4.70;99.90
62339;DHT22;48368;53.406;6.214;2023-11-18T08:41:17;4.70;99.90
62339;DHT22;48368;53.406;6.214;2023-11-18T08:43:43;4.70;99.90
62339;DHT22;48368;53.406;6.214;2023-11-18T08:46:14;4.70;99.90
62339;DHT22;48368;53.406;6.214;2023-11-18T08:48:40;4.80;99.90
62339;DHT22;48368;53.406;6.214;2023-11-18T08:51:07;4.80;99.90
62339;DHT22;48368;53.406;6.214;2023-11-18T08:53:34;4.90;99.90
62339;DHT22;48368;53.406;6.214;2023-11-18T08:56:09;4.90;99.90
62339;DHT22;48368;53.406;6.214;2023-11-18T08:58:44;4.90;99.90
62339;DHT22;48368;53.406;6.214;2023-11-18T09:01:10;4.90;99.90
62339;DHT22;48368;53.406;6.214;2023-11-18T09:03:40;5.00;99.90
62339;DHT22;48368;53.406;6.214;2023-11-18T09:06:14;5.00;99.90
62339;DHT22;48368;53.406;6.214;2023-11-18T09:08:45;5.00;99.90
62339;DHT22;48368;53.406;6.214;2023-11-18T09:11:14;5.00;99.90
62339;DHT22;48368;53.406;6.214;2023-11-18T09:13:45;5.00;99.90
62339;DHT22;48368;53.406;6.214;2023-11-18T09:16:13;5.00;99.90
62339;DHT22;48368;53.406;6.214;2023-11-18T09:18:40;5.10;99.90
62339;DHT22;48368;53.406;6.214;2023-11-18T09:21:07;5.10;99.90
62339;DHT22;48368;53.406;6.214;2023-11-18T09:23:35;5.10;99.90
62339;DHT22;48368;53.406;6.214;2023-11-18T09:26:03;5.10;99.90
62339;DHT22;48368;53.406;6.214;2023-11-18T09:28:33;5.20;99.90
62339;DHT22;48368;53.406;6.214;2023-11-18T09:31:01;5.20;99.90
62339;DHT22;48368;53.406;6.214;2023-11-18T09:33:31;5.20;99.90
62339;DHT22;48368;53.406;6.214;2023-11-18T09:36:05;5.20;99.90
62339;DHT22;48368;53.406;6.214;2023-11-18T09:38:35;5.30;99.90
62339;DHT22;48368;53.406;6.214;2023-11-18T09:41:03;5.30;99.90
62339;DHT22;48368;53.406;6.214;2023-11-18T09:43:32;5.30;99.90
62339;DHT22;48368;53.406;6.214;2023-11-18T09:46:15;5.30;99.90
62339;DHT22;48368;53.406;6.214;2023-11-18T09:48:45;5.30;99.90
62339;DHT22;48368;53.406;6.214;2023-11-18T09:51:34;5.40;99.90
62339;DHT22;48368;53.406;6.214;2023-11-18T10:00:02;5.40;99.90
62339;DHT22;48368;53.406;6.214;2023-11-18T10:02:53;5.50;99.90
62339;DHT22;48368;53.406;6.214;2023-11-18T10:05:21;5.50;99.90
62339;DHT22;48368;53.406;6.214;2023-11-18T10:07:48;5.50;99.90
62339;DHT22;48368;53.406;6.214;2023-11-18T10:10:15;5.60;99.90
62339;DHT22;48368;53.406;6.214;2023-11-18T10:12:45;5.50;99.90
62339;DHT22;48368;53.406;6.214;2023-11-18T10:15:15;5.60;99.90
62339;DHT22;48368;53.406;6.214;2023-11-18T10:17:45;5.50;99.90
62339;DHT22;48368;53.406;6.214;2023-11-18T10:20:46;5.50;99.90
62339;DHT22;48368;53.406;6.214;2023-11-18T10:23:17;5.60;99.90
62339;DHT22;48368;53.406;6.214;2023-11-18T10:25:47;5.60;99.90
62339;DHT22;48368;53.406;6.214;2023-11-18T10:28:33;5.60;99.90
62339;DHT22;48368;53.406;6.214;2023-11-18T10:31:03;5.60;99.90
62339;DHT22;48368;53.406;6.214;2023-11-18T10:33:31;5.60;99.90
62339;DHT22;48368;53.406;6.214;2023-11-18T10:35:57;5.50;99.90
62339;DHT22;48368;53.406;6.214;2023-11-18T10:38:23;5.60;99.90
62339;DHT22;48368;53.406;6.214;2023-11-18T10:40:53;5.50;99.90
62339;DHT22;48368;53.406;6.214;2023-11-18T10:43:21;5.50;99.90
62339;DHT22;48368;53.406;6.214;2023-11-18T10:48:39;5.60;99.90
62339;DHT22;48368;53.406;6.214;2023-11-18T10:51:10;5.50;99.90
62339;DHT22;48368;53.406;6.214;2023-11-18T10:53:40;5.50;99.90
62339;DHT22;48368;53.406;6.214;2023-11-18T10:56:19;5.50;99.90
62339;DHT22;48368;53.406;6.214;2023-11-18T10:58:53;5.50;99.90
62339;DHT22;48368;53.406;6.214;2023-11-18T11:01:33;5.50;99.90
62339;DHT22;48368;53.406;6.214;2023-11-18T11:04:02;5.40;99.90
62339;DHT22;48368;53.406;6.214;2023-11-18T11:06:30;5.50;99.90
62339;DHT22;48368;53.406;6.214;2023-11-18T11:08:58;5.50;99.90
62339;DHT22;48368;53.406;6.214;2023-11-18T11:11:39;5.50;99.90
62339;DHT22;48368;53.406;6.214;2023-11-18T11:14:06;5.50;99.90
62339;DHT22;48368;53.406;6.214;2023-11-18T11:19:04;5.50;99.90
62339;DHT22;48368;53.406;6.214;2023-11-18T11:21:47;5.50;99.90
62339;DHT22;48368;53.406;6.214;2023-11-18T11:24:33;5.40;99.90
62339;DHT22;48368;53.406;6.214;2023-11-18T11:27:38;5.50;99.90
62339;DHT22;48368;53.406;6.214;2023-11-18T11:30:22;5.50;99.90
62339;DHT22;48368;53.406;6.214;2023-11-18T11:33:04;5.50;99.90
62339;DHT22;48368;53.406;6.214;2023-11-18T11:35:33;5.60;99.90
62339;DHT22;48368;53.406;6.214;2023-11-18T11:38:02;5.40;99.90
62339;DHT22;48368;53.406;6.214;2023-11-18T11:40:36;5.50;99.90
62339;DHT22;48368;53.406;6.214;2023-11-18T11:43:07;5.40;99.90
62339;DHT22;48368;53.406;6.214;2023-11-18T11:45:36;5.40;99.90
62339;DHT22;48368;53.406;6.214;2023-11-18T11:48:02;5.40;99.90
62339;DHT22;48368;53.406;6.214;2023-11-18T11:54:11;5.40;99.90
62339;DHT22;48368;53.406;6.214;2023-11-18T11:56:44;5.40;99.90
62339;DHT22;48368;53.406;6.214;2023-11-18T11:59:55;5.40;99.90
62339;DHT22;48368;53.406;6.214;2023-11-18T12:02:26;5.40;99.90
62339;DHT22;48368;53.406;6.214;2023-11-18T12:04:57;5.40;99.90
62339;DHT22;48368;53.406;6.214;2023-11-18T12:07:32;5.40;99.90
62339;DHT22;48368;53.406;6.214;2023-11-18T12:10:08;5.50;99.90
62339;DHT22;48368;53.406;6.214;2023-11-18T12:12:39;5.50;99.90
62339;DHT22;48368;53.406;6.214;2023-11-18T12:15:05;5.40;99.90
62339;DHT22;48368;53.406;6.214;2023-11-18T12:20:37;5.50;99.90
62339;DHT22;48368;53.406;6.214;2023-11-18T12:23:08;5.40;99.90
62339;DHT22;48368;53.406;6.214;2023-11-18T12:25:42;5.50;99.90
62339;DHT22;48368;53.406;6.214;2023-11-18T12:28:18;5.50;99.90
62339;DHT22;48368;53.406;6.214;2023-11-18T12:53:52;5.50;99.90
62339;DHT22;48368;53.406;6.214;2023-11-18T12:57:45;5.50;99.90
62339;DHT22;48368;53.406;6.214;2023-11-18T13:08:25;5.50;99.90
62339;DHT22;48368;53.406;6.214;2023-11-18T13:10:52;5.50;99.90
62339;DHT22;48368;53.406;6.214;2023-11-18T13:13:34;5.50;99.90
62339;DHT22;48368;53.406;6.214;2023-11-18T13:16:33;5.50;99.90
62339;DHT22;48368;53.406;6.214;2023-11-18T13:19:29;5.50;99.90
62339;DHT22;48368;53.406;6.214;2023-11-18T13:22:30;5.50;99.90
62339;DHT22;48368;53.406;6.214;2023-11-18T13:33:48;5.50;99.90
62339;DHT22;48368;53.406;6.214;2023-11-18T13:36:14;5.50;99.90
62339;DHT22;48368;53.406;6.214;2023-11-18T13:38:41;5.50;99.90
62339;DHT22;48368;53.406;6.214;2023-11-18T13:41:09;5.50;99.90
62339;DHT22;48368;53.406;6.214;2023-11-18T13:43:45;5.50;99.90
62339;DHT22;48368;53.406;6.214;2023-11-18T13:46:18;5.50;99.90
62339;DHT22;48368;53.406;6.214;2023-11-18T13:52:48;5.60;99.90
62339;DHT22;48368;53.406;6.214;2023-11-18T14:03:19;5.60;99.90
62339;DHT22;48368;53.406;6.214;2023-11-18T14:16:58;5.70;99.90
62339;DHT22;48368;53.406;6.214;2023-11-18T14:44:26;5.80;99.90
62339;DHT22;48368;53.406;6.214;2023-11-18T14:47:22;5.80;99.90
62339;DHT22;48368;53.406;6.214;2023-11-18T15:39:25;5.90;99.90
62339;DHT22;48368;53.406;6.214;2023-11-18T15:41:53;5.90;99.90
62339;DHT22;48368;53.406;6.214;2023-11-18T15:47:56;5.90;99.90
62339;DHT22;48368;53.406;6.214;2023-11-18T15:54:06;5.90;99.90
62339;DHT22;48368;53.406;6.214;2023-11-18T15:56:41;5.90;99.90
62339;DHT22;48368;53.406;6.214;2023-11-18T15:59:23;5.90;99.90
62339;DHT22;48368;53.406;6.214;2023-11-18T16:01:56;5.90;99.90
62339;DHT22;48368;53.406;6.214;2023-11-18T16:08:05;6.00;99.90
62339;DHT22;48368;53.406;6.214;2023-11-18T16:10:42;6.00;99.90
62339;DHT22;48368;53.406;6.214;2023-11-18T16:13:20;6.00;99.90
62339;DHT22;48368;53.406;6.214;2023-11-18T16:16:00;6.00;99.90
62339;DHT22;48368;53.406;6.214;2023-11-18T16:18:29;6.00;99.90
62339;DHT22;48368;53.406;6.214;2023-11-18T16:20:54;6.00;99.90
62339;DHT22;48368;53.406;6.214;2023-11-18T16:23:39;6.00;99.90
62339;DHT22;48368;53.406;6.214;2023-11-18T16:26:07;6.10;99.90
62339;DHT22;48368;53.406;6.214;2023-11-18T16:28:42;6.10;99.90
62339;DHT22;48368;53.406;6.214;2023-11-18T16:31:07;6.00;99.90
62339;DHT22;48368;53.406;6.214;2023-11-18T16:36:43;6.10;99.90
62339;DHT22;48368;53.406;6.214;2023-11-18T16:39:31;6.10;99.90
62339;DHT22;48368;53.406;6.214;2023-11-18T16:41:57;6.10;99.90
62339;DHT22;48368;53.406;6.214;2023-11-18T16:44:22;6.10;99.90
62339;DHT22;48368;53.406;6.214;2023-11-18T16:46:48;6.10;99.90
62339;DHT22;48368;53.406;6.214;2023-11-18T16:49:15;6.20;99.90
62339;DHT22;48368;53.406;6.214;2023-11-18T16:51:42;6.10;99.90
62339;DHT22;48368;53.406;6.214;2023-11-18T16:54:08;6.20;99.90
62339;DHT22;48368;53.406;6.214;2023-11-18T16:56:33;6.10;99.90
62339;DHT22;48368;53.406;6.214;2023-11-18T16:58:59;6.10;99.90
62339;DHT22;48368;53.406;6.214;2023-11-18T17:01:25;6.10;99.90
62339;DHT22;48368;53.406;6.214;2023-11-18T17:03:51;6.10;99.90
62339;DHT22;48368;53.406;6.214;2023-11-18T17:06:17;6.20;99.90
62339;DHT22;48368;53.406;6.214;2023-11-18T17:08:46;6.10;99.90
62339;DHT22;48368;53.406;6.214;2023-11-18T17:11:11;6.20;99.90
62339;DHT22;48368;53.406;6.214;2023-11-18T17:13:40;6.20;99.90
62339;DHT22;48368;53.406;6.214;2023-11-18T17:16:26;6.20;99.90
62339;DHT22;48368;53.406;6.214;2023-11-18T17:19:01;6.20;99.90
62339;DHT22;48368;53.406;6.214;2023-11-18T17:21:27;6.20;99.90
62339;DHT22;48368;53.406;6.214;2023-11-18T17:23:52;6.30;99.90
62339;DHT22;48368;53.406;6.214;2023-11-18T17:26:21;6.30;99.90
62339;DHT22;48368;53.406;6.214;2023-11-18T17:29:25;6.40;99.90
62339;DHT22;48368;53.406;6.214;2023-11-18T17:31:51;6.30;99.90
62339;DHT22;48368;53.406;6.214;2023-11-18T17:34:16;6.40;99.90
62339;DHT22;48368;53.406;6.214;2023-11-18T17:36:44;6.40;99.90
62339;DHT22;48368;53.406;6.214;2023-11-18T17:39:16;6.40;99.90
62339;DHT22;48368;53.406;6.214;2023-11-18T17:41:52;6.40;99.90
62339;DHT22;48368;53.406;6.214;2023-11-18T17:44:27;6.40;99.90
62339;DHT22;48368;53.406;6.214;2023-11-18T17:46:53;6.40;99.90
62339;DHT22;48368;53.406;6.214;2023-11-18T17:49:18;6.40;99.90
62339;DHT22;48368;53.406;6.214;2023-11-18T17:51:44;6.40;99.90
62339;DHT22;48368;53.406;6.214;2023-11-18T17:54:10;6.50;99.90
62339;DHT22;48368;53.406;6.214;2023-11-18T17:56:37;6.40;99.90
62339;DHT22;48368;53.406;6.214;2023-11-18T17:59:03;6.50;99.90
62339;DHT22;48368;53.406;6.214;2023-11-18T18:01:29;6.40;99.90
62339;DHT22;48368;53.406;6.214;2023-11-18T18:03:55;6.50;99.90
62339;DHT22;48368;53.406;6.214;2023-11-18T18:06:20;6.50;99.90
62339;DHT22;48368;53.406;6.214;2023-11-18T18:08:46;6.50;99.90
62339;DHT22;48368;53.406;6.214;2023-11-18T18:11:11;6.50;99.90
62339;DHT22;48368;53.406;6.214;2023-11-18T18:13:37;6.50;99.90
62339;DHT22;48368;53.406;6.214;2023-11-18T18:16:03;6.50;99.90
62339;DHT22;48368;53.406;6.214;2023-11-18T18:18:29;6.50;99.90
62339;DHT22;48368;53.406;6.214;2023-11-18T18:20:55;6.50;99.90
62339;DHT22;48368;53.406;6.214;2023-11-18T18:23:21;6.50;99.90
62339;DHT22;48368;53.406;6.214;2023-11-18T18:25:46;6.60;99.90
62339;DHT22;48368;53.406;6.214;2023-11-18T18:28:12;6.50;99.90
62339;DHT22;48368;53.406;6.214;2023-11-18T18:30:37;6.60;99.90
62339;DHT22;48368;53.406;6.214;2023-11-18T18:33:03;6.60;99.90
62339;DHT22;48368;53.406;6.214;2023-11-18T18:35:30;6.60;99.90
62339;DHT22;48368;53.406;6.214;2023-11-18T18:37:57;6.60;99.90
62339;DHT22;48368;53.406;6.214;2023-11-18T18:40:22;6.60;99.90
62339;DHT22;48368;53.406;6.214;2023-11-18T18:42:51;6.70;99.90
62339;DHT22;48368;53.406;6.214;2023-11-18T18:45:17;6.70;99.90
62339;DHT22;48368;53.406;6.214;2023-11-18T18:47:45;6.60;99.90
62339;DHT22;48368;53.406;6.214;2023-11-18T18:50:11;6.70;99.90